createdAt,value
2019-05-29T00:01:43.183Z,47.30
2019-05-29T00:04:12.386Z,47.30
2019-05-29T00:06:41.478Z,47.20
2019-05-29T00:09:10.374Z,47.20
2019-05-29T00:11:39.257Z,47.10
2019-05-29T00:14:19.889Z,47.10
2019-05-29T00:16:38.469Z,47.10
2019-05-29T00:19:08.677Z,47.10
2019-05-29T00:21:37.890Z,47.10
2019-05-29T00:24:06.779Z,47.20
2019-05-29T00:26:35.668Z,47.10
2019-05-29T00:29:05.553Z,47.20
2019-05-29T00:31:34.678Z,47.20
2019-05-29T00:34:03.569Z,47.20
2019-05-29T00:36:32.459Z,47.20
2019-05-29T00:39:01.349Z,47.20
2019-05-29T00:41:30.241Z,47.20
2019-05-29T00:43:59.130Z,47.20
2019-05-29T00:46:28.027Z,47.20
2019-05-29T00:48:56.797Z,47.20
2019-05-29T00:51:25.697Z,47.30
2019-05-29T00:53:54.377Z,47.30
2019-05-29T00:56:23.280Z,47.30
2019-05-29T00:58:52.167Z,47.40
2019-05-29T01:01:22.098Z,47.50
2019-05-29T01:03:51.984Z,47.40
2019-05-29T01:06:20.888Z,47.50
2019-05-29T01:08:50.183Z,47.50
2019-05-29T01:11:19.073Z,47.50
2019-05-29T01:13:47.902Z,47.70
2019-05-29T01:16:17.455Z,47.60
2019-05-29T01:18:46.462Z,47.80
2019-05-29T01:21:15.947Z,47.90
2019-05-29T01:23:45.061Z,47.90
2019-05-29T01:26:14.514Z,47.80
2019-05-29T01:28:43.559Z,47.80
2019-05-29T01:31:13.570Z,47.80
2019-05-29T01:33:42.672Z,47.80
2019-05-29T01:36:11.563Z,47.70
2019-05-29T01:38:40.453Z,47.70
2019-05-29T01:41:09.225Z,47.60
2019-05-29T01:43:38.145Z,47.70
2019-05-29T01:46:07.022Z,47.50
2019-05-29T01:48:35.913Z,47.50
2019-05-29T01:51:05.053Z,47.60
2019-05-29T01:53:33.809Z,47.60
2019-05-29T01:56:02.669Z,47.70
2019-05-29T01:58:31.575Z,47.70
2019-05-29T02:01:00.467Z,47.70
2019-05-29T02:03:29.355Z,47.80
2019-05-29T02:05:58.262Z,47.70
2019-05-29T02:08:28.285Z,47.70
2019-05-29T02:10:57.362Z,47.70
2019-05-29T02:13:26.249Z,47.70
2019-05-29T02:15:55.143Z,47.80
2019-05-29T02:18:25.047Z,47.80
2019-05-29T02:20:54.045Z,47.90
2019-05-29T02:23:24.137Z,48.00
2019-05-29T02:25:53.262Z,48.00
2019-05-29T02:28:22.598Z,48.10
2019-05-29T02:30:51.655Z,48.00
2019-05-29T02:33:21.931Z,48.00
2019-05-29T02:35:50.916Z,48.10
2019-05-29T02:38:20.519Z,48.20
2019-05-29T02:40:49.576Z,48.30
2019-05-29T02:43:19.228Z,48.30
2019-05-29T02:45:54.455Z,48.20
2019-05-29T02:48:20.799Z,48.40
2019-05-29T02:50:49.541Z,48.40
2019-05-29T02:53:19.941Z,48.40
2019-05-29T02:55:49.071Z,48.40
2019-05-29T02:58:18.062Z,48.50
2019-05-29T03:00:53.924Z,48.40
2019-05-29T03:03:26.059Z,48.50
2019-05-29T03:05:54.677Z,48.50
2019-05-29T03:08:24.633Z,48.40
2019-05-29T03:10:54.280Z,48.50
2019-05-29T03:13:23.315Z,48.70
2019-05-29T03:16:08.468Z,48.70
2019-05-29T03:18:23.982Z,48.50
2019-05-29T03:20:53.255Z,48.50
2019-05-29T03:23:22.214Z,48.80
2019-05-29T03:25:51.104Z,48.90
2019-05-29T03:28:19.996Z,48.90
2019-05-29T03:30:48.904Z,49.30
2019-05-29T03:33:17.776Z,49.30
2019-05-29T03:35:48.461Z,49.00
2019-05-29T03:38:17.091Z,48.60
2019-05-29T03:40:45.862Z,48.50
2019-05-29T03:43:14.771Z,48.50
2019-05-29T03:45:43.662Z,48.30
2019-05-29T03:48:12.653Z,48.30
2019-05-29T03:50:41.957Z,48.20
2019-05-29T03:53:10.844Z,48.20
2019-05-29T03:55:39.623Z,48.20
2019-05-29T03:58:08.530Z,48.10
2019-05-29T04:00:45.546Z,48.20
2019-05-29T04:03:07.723Z,48.30
2019-05-29T04:05:38.041Z,48.40
2019-05-29T04:08:06.978Z,48.50
2019-05-29T04:10:37.858Z,48.60
2019-05-29T04:13:06.251Z,48.60
2019-05-29T04:15:36.593Z,48.70
2019-05-29T04:18:06.196Z,48.80
2019-05-29T04:20:36.160Z,48.80
2019-05-29T04:23:06.416Z,48.90
2019-05-29T04:25:40.003Z,48.90
2019-05-29T04:28:07.065Z,49.00
2019-05-29T04:30:39.385Z,49.10
2019-05-29T04:33:08.550Z,49.10
2019-05-29T04:35:39.535Z,49.20
2019-05-29T04:38:07.885Z,49.30
2019-05-29T04:40:37.361Z,49.30
2019-05-29T04:43:07.185Z,49.30
2019-05-29T04:45:38.109Z,49.30
2019-05-29T04:48:06.397Z,49.40
2019-05-29T04:50:36.477Z,49.50
2019-05-29T04:53:05.626Z,49.50
2019-05-29T04:55:34.830Z,49.60
2019-05-29T04:58:03.905Z,49.60
2019-05-29T05:00:33.060Z,49.70
2019-05-29T05:03:02.097Z,49.70
2019-05-29T05:05:31.207Z,49.70
2019-05-29T05:08:01.626Z,49.70
2019-05-29T05:10:40.599Z,49.60
2019-05-29T05:13:08.907Z,49.80
2019-05-29T05:15:38.219Z,49.80
2019-05-29T05:18:06.900Z,49.70
2019-05-29T05:20:36.279Z,49.50
2019-05-29T05:23:05.585Z,49.40
2019-05-29T05:25:34.604Z,49.40
2019-05-29T05:28:03.491Z,49.30
2019-05-29T05:30:32.435Z,49.30
2019-05-29T05:33:01.132Z,49.10
2019-05-29T05:35:30.724Z,49.10
2019-05-29T05:37:59.459Z,49.10
2019-05-29T05:40:28.149Z,49.30
2019-05-29T05:42:56.924Z,49.30
2019-05-29T05:45:25.828Z,49.20
2019-05-29T05:47:57.685Z,49.30
2019-05-29T05:50:24.759Z,49.40
2019-05-29T05:52:53.623Z,49.30
2019-05-29T05:55:22.279Z,48.90
2019-05-29T05:57:51.029Z,48.60
2019-05-29T06:00:23.059Z,48.40
2019-05-29T06:02:52.876Z,48.50
2019-05-29T06:05:21.764Z,48.10
2019-05-29T06:07:50.654Z,48.10
2019-05-29T06:10:21.080Z,48.10
2019-05-29T06:12:49.858Z,47.90
2019-05-29T06:15:18.761Z,47.50
2019-05-29T06:18:10.136Z,47.30
2019-05-29T06:20:17.962Z,47.00
2019-05-29T06:22:46.862Z,46.90
2019-05-29T06:25:15.753Z,46.90
2019-05-29T06:27:44.646Z,47.10
2019-05-29T06:30:13.536Z,46.80
2019-05-29T06:32:43.521Z,46.60
2019-05-29T06:35:12.541Z,46.40
2019-05-29T06:37:41.742Z,46.50
2019-05-29T06:40:10.662Z,46.40
2019-05-29T06:42:39.877Z,46.50
2019-05-29T06:45:09.120Z,46.40
2019-05-29T06:47:38.734Z,46.50
2019-05-29T06:50:08.447Z,46.70
2019-05-29T06:52:37.646Z,46.40
2019-05-29T06:55:08.069Z,46.60
2019-05-29T06:57:38.127Z,46.80
2019-05-29T07:00:07.498Z,47.20
2019-05-29T07:02:36.454Z,46.90
2019-05-29T07:05:07.009Z,46.60
2019-05-29T07:07:36.077Z,47.20
2019-05-29T07:10:06.724Z,47.40
2019-05-29T07:12:36.331Z,46.80
2019-05-29T07:15:10.126Z,46.90
2019-05-29T07:17:40.309Z,47.20
2019-05-29T07:20:09.470Z,47.60
2019-05-29T07:22:38.854Z,47.70
2019-05-29T07:25:08.067Z,47.40
2019-05-29T07:27:36.954Z,47.30
2019-05-29T07:30:07.394Z,47.30
2019-05-29T07:32:38.280Z,47.30
2019-05-29T07:35:06.593Z,47.50
2019-05-29T07:37:35.374Z,47.70
2019-05-29T07:40:08.142Z,47.60
2019-05-29T07:42:37.068Z,47.10
2019-05-29T07:45:08.993Z,47.10
2019-05-29T07:47:38.259Z,46.90
2019-05-29T07:50:07.551Z,46.60
2019-05-29T07:52:36.502Z,46.80
2019-05-29T07:55:08.480Z,46.60
2019-05-29T07:57:36.454Z,46.90
2019-05-29T08:00:08.541Z,46.80
2019-05-29T08:02:37.459Z,46.70
2019-05-29T08:05:06.430Z,46.90
2019-05-29T08:07:35.188Z,47.40
2019-05-29T08:10:05.955Z,46.80
2019-05-29T08:12:34.907Z,46.60
2019-05-29T08:15:03.785Z,47.10
2019-05-29T08:17:32.511Z,47.10
2019-05-29T08:20:07.102Z,46.90
2019-05-29T08:22:34.565Z,47.20
2019-05-29T08:25:02.224Z,47.60
2019-05-29T08:27:31.114Z,47.20
2019-05-29T08:29:59.999Z,47.20
2019-05-29T08:32:28.890Z,47.70
2019-05-29T08:34:57.781Z,47.90
2019-05-29T08:37:26.481Z,47.50
2019-05-29T08:39:55.359Z,47.90
2019-05-29T08:42:24.231Z,48.10
2019-05-29T08:44:53.139Z,48.30
2019-05-29T08:47:22.028Z,48.20
2019-05-29T08:49:54.034Z,48.10
2019-05-29T08:52:22.573Z,48.10
2019-05-29T08:54:52.896Z,48.10
2019-05-29T08:57:21.792Z,47.80
2019-05-29T08:59:50.753Z,47.40
2019-05-29T09:02:19.774Z,47.40
2019-05-29T09:04:50.174Z,47.40
2019-05-29T09:07:19.010Z,47.50
2019-05-29T09:09:49.014Z,47.20
2019-05-29T09:12:18.100Z,47.20
2019-05-29T09:14:47.008Z,46.90
2019-05-29T09:17:16.892Z,46.80
2019-05-29T09:19:46.306Z,47.20
2019-05-29T09:22:16.438Z,46.50
2019-05-29T09:24:45.428Z,46.70
2019-05-29T09:27:15.350Z,46.90
2019-05-29T09:29:44.535Z,46.80
2019-05-29T09:32:14.883Z,46.90
2019-05-29T09:34:47.499Z,47.00
2019-05-29T09:37:15.501Z,46.80
2019-05-29T09:39:44.805Z,46.10
2019-05-29T09:42:15.048Z,46.10
2019-05-29T09:44:44.119Z,46.20
2019-05-29T09:47:13.008Z,46.20
2019-05-29T09:49:41.900Z,46.40
2019-05-29T09:52:10.794Z,46.40
2019-05-29T09:54:39.680Z,46.30
2019-05-29T09:57:08.570Z,46.00
2019-05-29T09:59:37.465Z,46.00
2019-05-29T10:02:08.925Z,46.10
2019-05-29T10:04:36.669Z,46.10
2019-05-29T10:07:05.569Z,46.30
2019-05-29T10:09:34.562Z,46.20
2019-05-29T10:12:06.357Z,46.30
2019-05-29T10:14:33.874Z,46.30
2019-05-29T10:17:07.985Z,46.40
2019-05-29T10:19:33.195Z,46.30
2019-05-29T10:22:03.610Z,45.90
2019-05-29T10:24:32.646Z,46.00
2019-05-29T10:27:03.497Z,46.10
2019-05-29T10:29:32.342Z,46.10
2019-05-29T10:32:01.006Z,46.10
2019-05-29T10:34:29.916Z,46.20
2019-05-29T10:37:00.139Z,46.70
2019-05-29T10:39:28.817Z,46.50
2019-05-29T10:41:57.714Z,46.40
2019-05-29T10:44:26.486Z,46.50
2019-05-29T10:46:56.521Z,46.50
2019-05-29T10:49:25.892Z,46.40
2019-05-29T10:52:12.970Z,46.20
2019-05-29T10:54:26.975Z,45.80
2019-05-29T10:56:55.868Z,45.70
2019-05-29T10:59:24.755Z,45.60
2019-05-29T11:01:55.538Z,45.60
2019-05-29T11:04:24.587Z,45.80
2019-05-29T11:06:54.817Z,46.00
2019-05-29T11:09:23.801Z,46.00
2019-05-29T11:11:53.260Z,46.00
2019-05-29T11:14:23.133Z,46.10
2019-05-29T11:16:53.126Z,46.20
2019-05-29T11:19:25.834Z,46.30
2019-05-29T11:21:53.850Z,46.30
2019-05-29T11:24:23.080Z,46.40
2019-05-29T11:26:52.575Z,46.60
2019-05-29T11:29:21.597Z,47.20
2019-05-29T11:31:50.581Z,46.50
2019-05-29T11:34:19.698Z,46.60
2019-05-29T11:36:48.559Z,46.90
2019-05-29T11:39:17.447Z,47.50
2019-05-29T11:41:46.342Z,47.00
2019-05-29T11:44:15.233Z,47.10
2019-05-29T11:46:44.008Z,47.20
2019-05-29T11:49:12.909Z,47.70
2019-05-29T11:51:44.308Z,47.10
2019-05-29T11:54:12.102Z,47.10
2019-05-29T11:56:40.840Z,47.10
2019-05-29T11:59:09.694Z,47.10
2019-05-29T12:01:49.807Z,47.00
2019-05-29T12:04:24.184Z,46.90
2019-05-29T12:06:39.748Z,46.90
2019-05-29T12:09:10.121Z,46.80
2019-05-29T12:11:39.269Z,46.80
2019-05-29T12:14:08.088Z,47.40
2019-05-29T12:16:36.845Z,46.80
2019-05-29T12:19:06.552Z,46.80
2019-05-29T12:21:35.443Z,46.70
2019-05-29T12:24:04.220Z,46.60
2019-05-29T12:26:32.946Z,46.50
2019-05-29T12:29:09.158Z,46.40
2019-05-29T12:31:32.225Z,46.30
2019-05-29T12:34:12.744Z,46.20
2019-05-29T12:36:31.429Z,46.00
2019-05-29T12:39:02.022Z,46.00
2019-05-29T12:41:30.661Z,45.90
2019-05-29T12:43:59.691Z,46.00
2019-05-29T12:46:28.647Z,46.00
2019-05-29T12:48:57.631Z,45.90
2019-05-29T12:51:26.638Z,45.80
2019-05-29T12:53:55.822Z,45.70
2019-05-29T12:56:24.926Z,45.80
2019-05-29T12:58:54.207Z,45.80
2019-05-29T13:01:23.007Z,45.80
2019-05-29T13:03:51.934Z,45.80
2019-05-29T13:06:20.897Z,45.90
2019-05-29T13:08:49.800Z,46.20
2019-05-29T13:11:18.678Z,45.80
2019-05-29T13:13:47.568Z,46.00
2019-05-29T13:16:16.343Z,46.00
2019-05-29T13:18:45.245Z,46.10
2019-05-29T13:21:14.136Z,46.30
2019-05-29T13:23:45.417Z,46.70
2019-05-29T13:26:13.537Z,45.70
2019-05-29T13:28:42.445Z,45.40
2019-05-29T13:31:11.335Z,45.40
2019-05-29T13:33:40.329Z,45.40
2019-05-29T13:36:09.219Z,45.20
2019-05-29T13:38:38.078Z,45.30
2019-05-29T13:41:07.479Z,45.50
2019-05-29T13:43:36.567Z,45.30
2019-05-29T13:46:05.505Z,45.20
2019-05-29T13:48:34.653Z,45.20
2019-05-29T13:51:05.503Z,45.30
2019-05-29T13:53:34.455Z,45.50
2019-05-29T13:56:04.118Z,45.50
2019-05-29T13:58:33.015Z,45.50
2019-05-29T14:01:02.494Z,45.50
2019-05-29T14:03:31.288Z,45.30
2019-05-29T14:06:00.855Z,45.50
2019-05-29T14:08:29.796Z,45.50
2019-05-29T14:10:59.113Z,45.60
2019-05-29T14:13:28.210Z,45.90
2019-05-29T14:15:57.099Z,46.20
2019-05-29T14:18:25.989Z,45.90
2019-05-29T14:20:54.877Z,45.80
2019-05-29T14:23:23.767Z,46.00
2019-05-29T14:25:52.660Z,46.20
2019-05-29T14:28:21.547Z,46.30
2019-05-29T14:30:50.375Z,46.40
2019-05-29T14:33:19.239Z,46.40
2019-05-29T14:35:48.219Z,46.40
2019-05-29T14:38:17.019Z,46.30
2019-05-29T14:40:45.820Z,46.30
2019-05-29T14:43:15.669Z,46.20
2019-05-29T14:45:44.706Z,46.10
2019-05-29T14:48:13.485Z,46.20
2019-05-29T14:50:43.143Z,45.90
2019-05-29T14:53:13.332Z,45.70
2019-05-29T14:55:42.620Z,45.60
2019-05-29T14:58:11.924Z,45.60
2019-05-29T15:00:41.013Z,45.50
2019-05-29T15:03:09.718Z,45.60
2019-05-29T15:05:38.594Z,45.40
2019-05-29T15:08:08.039Z,45.50
2019-05-29T15:10:37.189Z,45.60
2019-05-29T15:13:06.569Z,45.70
2019-05-29T15:15:35.789Z,45.70
2019-05-29T15:18:04.892Z,45.60
2019-05-29T15:20:33.980Z,45.40
2019-05-29T15:23:02.922Z,45.40
2019-05-29T15:25:31.967Z,45.30
2019-05-29T15:28:00.857Z,45.40
2019-05-29T15:30:29.746Z,45.20
2019-05-29T15:32:58.649Z,45.10
2019-05-29T15:35:27.432Z,45.10
2019-05-29T15:37:56.314Z,45.20
2019-05-29T15:40:25.206Z,45.20
2019-05-29T15:42:54.098Z,45.10
2019-05-29T15:45:23.136Z,45.20
2019-05-29T15:47:52.297Z,45.30
2019-05-29T15:50:21.113Z,45.20
2019-05-29T15:52:50.069Z,45.20
2019-05-29T15:55:28.124Z,45.10
2019-05-29T15:57:49.592Z,45.00
2019-05-29T16:00:18.480Z,45.00
2019-05-29T16:02:49.016Z,45.00
2019-05-29T16:05:18.992Z,44.90
2019-05-29T16:07:48.227Z,45.20
2019-05-29T16:10:20.140Z,44.70
2019-05-29T16:12:47.541Z,44.60
2019-05-29T16:15:17.386Z,44.50
2019-05-29T16:17:46.657Z,44.40
2019-05-29T16:20:18.382Z,44.20
2019-05-29T16:22:47.400Z,44.00
2019-05-29T16:25:16.952Z,44.00
2019-05-29T16:27:46.002Z,43.90
2019-05-29T16:30:15.569Z,43.60
2019-05-29T16:32:44.621Z,43.50
2019-05-29T16:35:13.372Z,43.40
2019-05-29T16:37:42.284Z,43.30
2019-05-29T16:40:14.135Z,43.30
2019-05-29T16:42:43.235Z,43.40
2019-05-29T16:45:12.281Z,43.50
2019-05-29T16:47:41.320Z,43.30
2019-05-29T16:50:12.822Z,43.30
2019-05-29T16:52:41.050Z,43.00
2019-05-29T16:55:09.939Z,43.20
2019-05-29T16:57:38.714Z,43.20
2019-05-29T17:00:08.718Z,43.40
2019-05-29T17:02:37.726Z,43.50
2019-05-29T17:05:06.679Z,43.30
2019-05-29T17:07:35.405Z,43.40
2019-05-29T17:10:05.318Z,43.50
2019-05-29T17:12:34.219Z,43.10
2019-05-29T17:15:03.108Z,42.90
2019-05-29T17:17:31.999Z,43.20
2019-05-29T17:20:00.927Z,43.10
2019-05-29T17:22:29.665Z,43.10
2019-05-29T17:24:58.567Z,42.70
2019-05-29T17:27:27.459Z,42.70
2019-05-29T17:29:56.348Z,42.70
2019-05-29T17:32:25.383Z,42.70
2019-05-29T17:34:54.539Z,42.50
2019-05-29T17:37:23.429Z,42.40
2019-05-29T17:39:52.421Z,42.30
2019-05-29T17:42:22.446Z,42.10
2019-05-29T17:44:51.420Z,42.30
2019-05-29T17:47:21.298Z,42.00
2019-05-29T17:49:50.537Z,42.10
2019-05-29T17:52:19.739Z,42.00
2019-05-29T17:54:48.837Z,41.90
2019-05-29T17:57:18.261Z,41.80
2019-05-29T18:00:26.537Z,42.10
2019-05-29T18:02:54.224Z,41.90
2019-05-29T18:05:23.118Z,42.00
2019-05-29T18:07:51.881Z,41.90
2019-05-29T18:10:22.163Z,41.90
2019-05-29T18:12:52.234Z,41.80
2019-05-29T18:15:21.603Z,41.80
2019-05-29T18:17:50.695Z,41.70
2019-05-29T18:20:19.702Z,41.60
2019-05-29T18:22:48.615Z,41.60
2019-05-29T18:25:18.065Z,41.60
2019-05-29T18:27:47.010Z,41.40
2019-05-29T18:30:15.905Z,41.40
2019-05-29T18:32:44.792Z,41.30
2019-05-29T18:35:13.683Z,41.40
2019-05-29T18:37:42.673Z,41.30
2019-05-29T18:40:12.627Z,41.30
2019-05-29T18:42:41.770Z,41.20
2019-05-29T18:45:20.172Z,41.50
2019-05-29T18:47:41.410Z,41.70
2019-05-29T18:50:10.613Z,41.60
2019-05-29T18:52:39.386Z,41.70
2019-05-29T18:55:08.286Z,42.00
2019-05-29T18:57:37.065Z,42.20
2019-05-29T19:00:08.183Z,42.60
2019-05-29T19:02:36.942Z,42.80
2019-05-29T19:05:05.948Z,43.10
2019-05-29T19:07:34.887Z,43.10
2019-05-29T19:10:06.804Z,43.10
2019-05-29T19:12:34.842Z,43.10
2019-05-29T19:15:04.796Z,43.10
2019-05-29T19:17:33.506Z,43.20
2019-05-29T19:20:02.410Z,43.30
2019-05-29T19:22:32.407Z,43.10
2019-05-29T19:25:01.576Z,43.10
2019-05-29T19:27:39.164Z,43.30
2019-05-29T19:30:00.942Z,43.30
2019-05-29T19:32:29.836Z,43.20
2019-05-29T19:34:58.639Z,43.30
2019-05-29T19:37:27.924Z,43.20
2019-05-29T19:39:57.015Z,43.30
2019-05-29T19:42:26.143Z,43.50
2019-05-29T19:44:54.987Z,43.70
2019-05-29T19:47:24.627Z,43.70
2019-05-29T19:49:53.599Z,43.80
2019-05-29T19:52:22.593Z,43.90
2019-05-29T19:54:51.450Z,43.80
2019-05-29T19:57:20.270Z,43.90
2019-05-29T19:59:49.058Z,43.90
2019-05-29T20:02:17.643Z,43.90
2019-05-29T20:04:46.565Z,43.90
2019-05-29T20:07:15.310Z,43.90
2019-05-29T20:09:44.067Z,43.90
2019-05-29T20:12:12.997Z,44.00
2019-05-29T20:14:41.787Z,44.00
2019-05-29T20:17:10.641Z,43.90
2019-05-29T20:19:40.975Z,43.90
2019-05-29T20:22:10.199Z,43.90
2019-05-29T20:24:39.157Z,44.00
2019-05-29T20:27:08.188Z,43.90
2019-05-29T20:29:36.879Z,43.90
2019-05-29T20:32:05.763Z,43.90
2019-05-29T20:34:34.721Z,43.90
2019-05-29T20:37:03.540Z,43.80
2019-05-29T20:39:32.975Z,43.90
2019-05-29T20:42:02.126Z,44.00
2019-05-29T20:44:31.031Z,44.00
2019-05-29T20:46:59.750Z,44.00
2019-05-29T20:49:28.713Z,43.90
2019-05-29T20:51:57.600Z,44.00
2019-05-29T20:54:26.490Z,43.80
2019-05-29T20:56:55.381Z,43.80
2019-05-29T20:59:24.272Z,43.90
2019-05-29T21:01:53.000Z,43.80
2019-05-29T21:04:21.746Z,44.00
2019-05-29T21:06:50.520Z,43.90
2019-05-29T21:09:19.332Z,44.10
2019-05-29T21:11:48.098Z,44.10
2019-05-29T21:14:17.003Z,43.40
2019-05-29T21:16:45.890Z,44.10
2019-05-29T21:19:14.575Z,44.20
2019-05-29T21:21:44.547Z,44.10
2019-05-29T21:24:13.364Z,44.10
2019-05-29T21:26:43.233Z,44.10
2019-05-29T21:29:12.389Z,44.00
2019-05-29T21:31:41.626Z,44.00
2019-05-29T21:34:10.457Z,44.00
2019-05-29T21:36:39.979Z,44.20
2019-05-29T21:39:09.281Z,44.20
2019-05-29T21:41:38.374Z,44.20
2019-05-29T21:44:07.475Z,44.20
2019-05-29T21:46:36.711Z,44.30
2019-05-29T21:49:05.788Z,44.30
2019-05-29T21:51:34.655Z,44.20
2019-05-29T21:54:03.546Z,44.20
2019-05-29T21:56:32.438Z,44.30
2019-05-29T21:59:04.150Z,44.30
2019-05-29T22:01:31.753Z,44.30
2019-05-29T22:04:00.527Z,44.30
2019-05-29T22:06:29.434Z,44.40
2019-05-29T22:08:58.321Z,44.40
2019-05-29T22:11:27.093Z,44.40
2019-05-29T22:13:56.526Z,44.50
2019-05-29T22:16:25.608Z,44.60
2019-05-29T22:18:54.976Z,44.50
2019-05-29T22:21:23.847Z,44.60
2019-05-29T22:23:53.055Z,44.50
2019-05-29T22:26:21.988Z,44.70
2019-05-29T22:28:51.158Z,44.70
2019-05-29T22:31:20.178Z,44.70
2019-05-29T22:33:49.069Z,44.70
2019-05-29T22:36:17.960Z,44.70
2019-05-29T22:38:46.849Z,44.70
2019-05-29T22:41:15.744Z,44.70
2019-05-29T22:43:44.630Z,44.80
2019-05-29T22:46:13.522Z,44.80
2019-05-29T22:48:42.410Z,44.80
2019-05-29T22:51:11.314Z,44.80
2019-05-29T22:53:40.190Z,44.90
2019-05-29T22:56:09.086Z,44.90
2019-05-29T22:58:37.977Z,44.90
2019-05-29T23:01:06.862Z,44.90
2019-05-29T23:03:35.871Z,44.80
2019-05-29T23:06:04.630Z,44.90
2019-05-29T23:08:33.361Z,44.70
2019-05-29T23:11:03.088Z,44.60
2019-05-29T23:13:31.921Z,44.80
2019-05-29T23:16:00.845Z,45.00
2019-05-29T23:18:29.601Z,45.00
2019-05-29T23:20:58.536Z,45.10
2019-05-29T23:23:27.402Z,45.10
2019-05-29T23:25:56.515Z,45.00
2019-05-29T23:28:25.581Z,45.10
2019-05-29T23:30:54.658Z,45.20
2019-05-29T23:33:23.649Z,45.20
2019-05-29T23:35:52.902Z,45.20
2019-05-29T23:38:21.964Z,45.20
2019-05-29T23:40:50.852Z,45.20
2019-05-29T23:43:19.747Z,45.10
2019-05-29T23:45:48.636Z,45.10
2019-05-29T23:48:17.546Z,45.10
2019-05-29T23:50:46.413Z,45.20
2019-05-29T23:53:15.309Z,45.30
2019-05-29T23:55:44.195Z,45.40
2019-05-29T23:58:13.085Z,45.40
